createdAt,value
2019-05-02T00:04:30.415Z,79.70
2019-05-02T00:09:25.178Z,79.70
2019-05-02T00:14:43.575Z,79.90
2019-05-02T00:19:49.875Z,79.70
2019-05-02T00:24:59.211Z,79.50
2019-05-02T00:30:09.380Z,79.90
2019-05-02T00:35:21.323Z,80.10
2019-05-02T00:40:31.407Z,79.90
2019-05-02T00:45:41.333Z,80.10
2019-05-02T00:50:50.658Z,79.80
2019-05-02T00:56:00.135Z,80.10
2019-05-02T01:01:29.440Z,79.70
2019-05-02T01:06:36.959Z,80.30
2019-05-02T01:11:44.080Z,79.30
2019-05-02T01:16:58.588Z,79.60
2019-05-02T01:22:27.352Z,79.90
2019-05-02T01:27:50.372Z,80.00
2019-05-02T01:32:55.419Z,80.00
2019-05-02T01:38:18.191Z,80.40
2019-05-02T01:43:29.247Z,80.40
2019-05-02T01:48:45.611Z,81.20
2019-05-02T01:53:53.044Z,80.50
2019-05-02T01:58:58.951Z,80.40
2019-05-02T02:04:09.988Z,80.30
2019-05-02T02:09:21.698Z,80.10
2019-05-02T02:14:36.156Z,80.30
2019-05-02T02:19:50.276Z,80.50
2019-05-02T02:26:06.664Z,81.00
2019-05-02T02:30:43.364Z,81.20
2019-05-02T02:36:03.707Z,81.50
2019-05-02T02:41:25.765Z,81.20
2019-05-02T02:46:30.747Z,81.80
2019-05-02T02:51:38.451Z,81.60
2019-05-02T02:56:52.290Z,81.70
2019-05-02T03:02:28.194Z,81.80
2019-05-02T03:07:42.514Z,82.00
2019-05-02T03:18:27.349Z,83.30
2019-05-02T03:23:36.739Z,82.60
2019-05-02T03:29:40.541Z,82.20
2019-05-02T03:34:13.083Z,82.40
2019-05-02T03:39:27.035Z,82.90
2019-05-02T03:44:55.800Z,83.50
2019-05-02T03:55:31.260Z,83.10
2019-05-02T04:00:38.288Z,84.40
2019-05-02T04:05:46.512Z,83.50
2019-05-02T04:11:38.769Z,82.90
2019-05-02T04:16:35.222Z,82.60
2019-05-02T04:21:52.692Z,83.30
2019-05-02T04:26:58.839Z,83.30
2019-05-02T04:32:11.801Z,83.60
2019-05-02T04:37:25.858Z,82.90
2019-05-02T04:43:18.216Z,83.70
2019-05-02T04:48:34.804Z,83.60
2019-05-02T04:53:42.171Z,84.40
2019-05-02T04:59:01.935Z,83.40
2019-05-02T05:04:03.613Z,83.10
2019-05-02T05:09:17.891Z,83.60
2019-05-02T05:14:21.928Z,84.00
2019-05-02T05:19:28.653Z,83.70
2019-05-02T05:24:38.551Z,83.90
2019-05-02T05:29:40.079Z,83.70
2019-05-02T05:34:44.309Z,83.80
2019-05-02T05:40:08.428Z,83.80
2019-05-02T05:45:14.000Z,84.10
2019-05-02T05:50:18.455Z,83.90
2019-05-02T05:55:24.394Z,84.10
2019-05-02T06:00:29.082Z,84.10
2019-05-02T06:05:40.490Z,84.30
2019-05-02T06:10:43.990Z,84.60
2019-05-02T06:15:46.011Z,84.70
2019-05-02T06:20:50.444Z,85.10
2019-05-02T06:25:54.628Z,85.40
2019-05-02T06:31:02.086Z,85.70
2019-05-02T06:36:24.313Z,85.70
2019-05-02T06:41:28.543Z,86.20
2019-05-02T06:46:32.816Z,87.00
2019-05-02T06:51:37.113Z,86.80
2019-05-02T06:56:43.034Z,87.10
2019-05-02T07:01:47.374Z,87.10
2019-05-02T07:06:58.853Z,87.50
2019-05-02T07:12:01.234Z,87.70
2019-05-02T07:17:08.245Z,87.90
2019-05-02T07:22:12.498Z,88.40
2019-05-02T07:27:16.806Z,88.40
2019-05-02T07:32:24.652Z,88.70
2019-05-02T07:37:26.973Z,87.90
2019-05-02T07:42:31.293Z,87.50
2019-05-02T07:47:40.197Z,86.50
2019-05-02T07:52:41.652Z,86.20
2019-05-02T07:57:45.926Z,85.80
2019-05-02T08:02:50.186Z,86.00
2019-05-02T08:07:55.271Z,84.70
2019-05-02T08:12:59.677Z,84.30
2019-05-02T08:18:03.904Z,83.00
2019-05-02T08:23:08.281Z,82.10
2019-05-02T08:28:23.144Z,81.20
2019-05-02T08:33:29.335Z,81.10
2019-05-02T08:38:33.324Z,80.00
2019-05-02T08:43:40.261Z,79.00
2019-05-02T08:48:43.804Z,77.60
2019-05-02T08:53:52.204Z,76.60
2019-05-02T08:58:54.131Z,75.10
2019-05-02T09:03:58.346Z,74.30
2019-05-02T09:09:02.720Z,74.30
2019-05-02T09:14:06.954Z,74.00
2019-05-02T09:19:15.222Z,72.10
2019-05-02T09:24:21.129Z,71.20
2019-05-02T09:29:23.123Z,69.70
2019-05-02T09:34:27.411Z,68.00
2019-05-02T09:39:36.274Z,67.00
2019-05-02T09:44:37.567Z,66.30
2019-05-02T09:49:48.949Z,66.20
2019-05-02T09:54:47.752Z,65.30
2019-05-02T09:59:55.713Z,64.60
2019-05-02T10:04:57.928Z,65.00
2019-05-02T10:10:03.127Z,64.90
2019-05-02T10:15:10.054Z,64.80
2019-05-02T10:20:14.360Z,64.80
2019-05-02T10:25:18.556Z,65.40
2019-05-02T10:30:24.453Z,66.90
2019-05-02T10:35:37.257Z,67.60
2019-05-02T10:40:39.224Z,68.20
2019-05-02T10:45:47.360Z,70.80
2019-05-02T10:50:53.937Z,71.90
2019-05-02T10:55:58.141Z,72.90
2019-05-02T11:01:02.379Z,73.70
2019-05-02T11:06:07.800Z,74.30
2019-05-02T11:11:12.770Z,75.30
2019-05-02T11:16:35.219Z,75.90
2019-05-02T11:21:53.525Z,77.20
2019-05-02T11:26:45.912Z,77.00
2019-05-02T11:31:52.024Z,77.00
2019-05-02T11:36:56.341Z,77.10
2019-05-02T11:42:02.082Z,77.20
2019-05-02T11:47:06.629Z,76.60
2019-05-02T11:52:11.849Z,76.40
2019-05-02T11:57:16.226Z,76.20
2019-05-02T12:02:22.549Z,77.00
2019-05-02T12:07:26.805Z,75.30
2019-05-02T12:12:34.279Z,73.60
2019-05-02T12:17:37.007Z,71.60
2019-05-02T12:22:41.936Z,71.10
2019-05-02T12:27:49.260Z,73.00
2019-05-02T12:32:53.733Z,76.10
2019-05-02T12:37:57.963Z,78.30
2019-05-02T12:43:02.507Z,80.10
2019-05-02T12:48:06.896Z,82.00
2019-05-02T12:53:12.607Z,82.20
2019-05-02T12:58:17.070Z,82.90
2019-05-02T13:03:38.016Z,82.50
2019-05-02T13:08:52.373Z,80.90
2019-05-02T13:13:57.014Z,81.90
2019-05-02T13:19:03.126Z,83.20
2019-05-02T13:24:32.562Z,84.80
2019-05-02T13:29:37.049Z,83.60
2019-05-02T13:34:55.521Z,82.20
2019-05-02T13:40:02.365Z,82.30
2019-05-02T13:45:27.363Z,83.70
2019-05-02T13:50:31.778Z,85.00
2019-05-02T13:55:37.780Z,85.20
2019-05-02T14:00:44.026Z,85.40
2019-05-02T14:05:57.708Z,86.40
2019-05-02T14:11:06.599Z,86.20
2019-05-02T14:16:12.212Z,87.30
2019-05-02T14:21:16.551Z,89.90
2019-05-02T14:26:30.247Z,90.60
2019-05-02T14:31:28.395Z,91.10
2019-05-02T14:36:35.627Z,90.40
2019-05-02T14:41:42.545Z,88.50
2019-05-02T14:46:46.020Z,89.30
2019-05-02T14:51:52.369Z,89.60
2019-05-02T14:57:03.568Z,89.50
2019-05-02T15:02:13.073Z,89.00
2019-05-02T15:07:38.473Z,88.10
2019-05-02T15:12:44.247Z,87.10
2019-05-02T15:17:48.465Z,85.60
2019-05-02T15:22:52.776Z,86.50
2019-05-02T15:27:59.964Z,86.30
2019-05-02T15:33:04.608Z,85.90
2019-05-02T15:38:08.845Z,86.00
2019-05-02T15:43:13.123Z,84.50
2019-05-02T15:48:22.484Z,84.00
2019-05-02T15:53:25.130Z,83.50
2019-05-02T15:58:29.425Z,83.50
2019-05-02T16:03:47.559Z,83.00
2019-05-02T16:08:52.115Z,81.90
2019-05-02T16:13:56.540Z,79.60
2019-05-02T16:19:02.171Z,80.00
2019-05-02T16:24:23.219Z,79.10
2019-05-02T16:29:28.890Z,79.80
2019-05-02T16:34:35.472Z,80.10
2019-05-02T16:39:43.694Z,78.90
2019-05-02T16:44:45.890Z,76.50
2019-05-02T16:49:53.436Z,73.70
2019-05-02T16:54:56.331Z,71.90
2019-05-02T17:00:02.373Z,71.40
2019-05-02T17:05:09.391Z,70.00
2019-05-02T17:10:17.728Z,70.60
2019-05-02T17:15:35.265Z,69.70
2019-05-02T17:20:39.182Z,70.10
2019-05-02T17:25:43.370Z,71.00
2019-05-02T17:30:47.735Z,70.60
2019-05-02T17:35:54.161Z,70.40
2019-05-02T17:40:59.386Z,69.50
2019-05-02T17:46:07.257Z,68.70
2019-05-02T17:51:28.466Z,69.10
2019-05-02T17:56:33.044Z,68.70
2019-05-02T18:01:38.912Z,69.60
2019-05-02T18:06:46.920Z,69.90
2019-05-02T18:11:51.761Z,70.60
2019-05-02T18:16:56.090Z,71.70
2019-05-02T18:22:03.569Z,73.00
2019-05-02T18:27:06.528Z,73.20
2019-05-02T18:32:12.659Z,73.10
2019-05-02T18:37:16.763Z,73.20
2019-05-02T18:42:25.301Z,73.60
2019-05-02T18:47:27.012Z,73.80
2019-05-02T18:52:38.063Z,73.90
2019-05-02T18:57:37.239Z,74.00
2019-05-02T19:02:42.483Z,74.10
2019-05-02T19:07:47.372Z,73.80
2019-05-02T19:12:56.207Z,74.10
2019-05-02T19:17:58.735Z,74.20
2019-05-02T19:23:02.978Z,74.40
2019-05-02T19:28:09.068Z,74.50
2019-05-02T19:33:13.349Z,74.80
2019-05-02T19:38:22.630Z,74.70
2019-05-02T19:43:25.173Z,74.20
2019-05-02T19:48:33.019Z,74.70
2019-05-02T19:53:42.478Z,74.90
2019-05-02T19:58:46.785Z,75.00
2019-05-02T20:03:52.051Z,75.10
2019-05-02T20:08:59.264Z,75.40
2019-05-02T20:14:09.192Z,75.60
2019-05-02T20:19:08.355Z,75.80
2019-05-02T20:24:17.582Z,75.90
2019-05-02T20:29:18.598Z,76.20
2019-05-02T20:34:22.821Z,77.00
2019-05-02T20:45:26.160Z,78.40
2019-05-02T20:50:31.846Z,79.10
2019-05-02T21:01:07.693Z,81.70
2019-05-02T21:06:40.732Z,82.80
2019-05-02T21:11:36.428Z,83.30
2019-05-02T21:16:44.764Z,84.30
2019-05-02T21:21:49.487Z,85.10
2019-05-02T21:26:59.062Z,85.70
2019-05-02T21:32:09.530Z,86.50
2019-05-02T21:37:19.259Z,86.60
2019-05-02T21:42:25.469Z,86.50
2019-05-02T21:47:31.857Z,87.50
2019-05-02T21:52:43.038Z,87.50
2019-05-02T21:57:52.157Z,88.10
2019-05-02T22:03:16.347Z,88.00
2019-05-02T22:08:21.706Z,88.00
2019-05-02T22:13:26.928Z,87.60
2019-05-02T22:18:35.099Z,88.00
2019-05-02T22:23:44.258Z,88.10
2019-05-02T22:28:53.604Z,87.90
2019-05-02T22:33:56.212Z,87.90
2019-05-02T22:39:22.089Z,87.90
2019-05-02T22:44:29.520Z,88.30
2019-05-02T22:50:03.250Z,88.30
2019-05-02T22:54:52.134Z,88.10
2019-05-02T22:59:58.403Z,87.80
2019-05-02T23:05:08.039Z,87.80
2019-05-02T23:10:13.627Z,87.90
2019-05-02T23:15:21.656Z,87.90
2019-05-02T23:20:32.793Z,87.60
2019-05-02T23:25:58.173Z,87.80
2019-05-02T23:31:06.961Z,87.60
2019-05-02T23:36:12.564Z,87.80
2019-05-02T23:41:22.118Z,87.80
2019-05-02T23:46:31.468Z,88.10
2019-05-02T23:51:37.377Z,88.00
2019-05-02T23:56:43.451Z,88.00
